Time;durP1;ratioP1;P1;durP2;ratioP2;P2;SDS_P1;SDS_P2;PMS_P1;PMS_P2;Temp;Humidity;BMP_temperature;BMP_pressure;BME280_temperature;BME280_humidity;BME280_pressure;Samples;Min_cycle;Max_cycle;Signal;HPM_P1;HPM_P2
2023/04/05 00:01:24;;;;;;;6.93;3.10;;;0.80;99.90;;;;;;5051607;28;20073;-72
2023/04/05 00:03:51;;;;;;;10.10;3.45;;;0.80;99.90;;;;;;5051719;28;20085;-72
2023/04/05 00:06:17;;;;;;;8.27;3.25;;;0.70;99.90;;;;;;5049832;28;20045;-75
2023/04/05 00:08:48;;;;;;;9.05;3.53;;;0.70;99.90;;;;;;5049321;28;20053;-72
2023/04/05 00:11:15;;;;;;;7.47;3.30;;;0.70;99.90;;;;;;5051275;28;20052;-72
2023/04/05 00:13:41;;;;;;;9.40;3.97;;;0.70;99.90;;;;;;5049440;28;20049;-72
2023/04/05 00:16:07;;;;;;;8.02;3.45;;;0.70;99.90;;;;;;5049453;28;20210;-75
2023/04/05 00:18:33;;;;;;;8.77;4.03;;;0.70;99.90;;;;;;5049251;28;20055;-73
2023/04/05 00:20:59;;;;;;;8.98;3.83;;;0.70;99.90;;;;;;5049832;28;20397;-73
2023/04/05 00:23:25;;;;;;;10.30;3.20;;;0.60;99.90;;;;;;5049469;28;20041;-72
2023/04/05 00:25:51;;;;;;;7.75;3.47;;;0.60;99.90;;;;;;5041851;28;20049;-71
2023/04/05 00:28:17;;;;;;;6.07;3.03;;;0.60;99.90;;;;;;5030309;28;20049;-72
2023/04/05 00:30:43;;;;;;;6.50;2.78;;;0.50;99.90;;;;;;5030862;28;20045;-72
2023/04/05 00:33:10;;;;;;;6.45;3.00;;;0.50;99.90;;;;;;5029430;28;20383;-72
2023/04/05 00:35:36;;;;;;;8.00;3.30;;;0.40;99.90;;;;;;5029382;28;20061;-71
2023/04/05 00:38:01;;;;;;;5.88;2.97;;;0.30;99.90;;;;;;5035227;28;20044;-72
2023/04/05 00:40:27;;;;;;;6.75;3.22;;;0.30;99.90;;;;;;5049077;28;20045;-71
2023/04/05 00:42:53;;;;;;;8.13;3.33;;;0.30;99.90;;;;;;5050520;28;20044;-75
2023/04/05 00:45:18;;;;;;;7.75;2.97;;;0.20;99.90;;;;;;5050738;28;20131;-73
2023/04/05 00:47:44;;;;;;;5.57;2.90;;;0.20;99.90;;;;;;5050228;28;20547;-74
2023/04/05 00:50:12;;;;;;;8.07;3.58;;;0.20;99.90;;;;;;5048863;28;20060;-72
2023/04/05 00:52:39;;;;;;;8.35;3.65;;;0.20;99.90;;;;;;5050250;28;20087;-72
2023/04/05 00:55:06;;;;;;;8.82;3.03;;;0.60;99.90;;;;;;5050207;28;20115;-73
2023/04/05 00:57:34;;;;;;;9.02;3.63;;;0.10;99.90;;;;;;5050351;28;20044;-71
2023/04/05 01:00:06;;;;;;;7.43;3.30;;;0.10;99.90;;;;;;5050220;28;20140;-73
2023/04/05 01:02:38;;;;;;;7.15;3.10;;;0.10;99.90;;;;;;5050395;28;20045;-73
2023/04/05 01:05:13;;;;;;;6.22;3.10;;;0.00;99.90;;;;;;5050419;28;20041;-72
2023/04/05 01:08:16;;;;;;;9.20;3.30;;;0.10;99.90;;;;;;5048081;28;20067;-72
2023/04/05 01:10:46;;;;;;;5.97;2.83;;;0.20;99.90;;;;;;4987740;28;20121;-72
2023/04/05 01:13:14;;;;;;;6.78;3.28;;;0.00;99.90;;;;;;4988048;28;20232;-70
2023/04/05 01:15:40;;;;;;;9.10;3.40;;;0.00;99.90;;;;;;4987695;28;20128;-74
2023/04/05 01:18:09;;;;;;;13.32;3.50;;;-0.10;99.90;;;;;;4987961;28;20057;-73
2023/04/05 01:20:41;;;;;;;6.78;3.33;;;-0.10;99.90;;;;;;4971628;28;20054;-72
2023/04/05 01:23:36;;;;;;;8.23;3.60;;;-0.10;99.90;;;;;;4987764;28;20125;-72
2023/04/05 01:26:35;;;;;;;11.68;4.20;;;-0.20;99.90;;;;;;4986160;28;20399;-71
2023/04/05 01:29:22;;;;;;;9.18;4.22;;;-0.20;99.90;;;;;;4971129;28;20046;-72
2023/04/05 01:31:59;;;;;;;8.43;3.92;;;-0.20;99.90;;;;;;4987641;28;20199;-72
2023/04/05 01:34:30;;;;;;;9.50;4.05;;;-0.20;99.90;;;;;;4987179;28;20471;-72
2023/04/05 01:36:59;;;;;;;8.18;4.05;;;-0.20;99.90;;;;;;4971115;28;20054;-72
2023/04/05 01:39:26;;;;;;;8.15;3.80;;;-0.10;99.90;;;;;;4987181;28;20624;-72
2023/04/05 01:41:56;;;;;;;8.15;4.32;;;-0.20;99.90;;;;;;4987411;28;20050;-72
2023/04/05 01:44:22;;;;;;;9.98;3.33;;;-0.20;99.90;;;;;;4971511;28;20397;-72
2023/04/05 01:46:47;;;;;;;10.40;4.07;;;-0.20;99.90;;;;;;5027164;28;20156;-72
2023/04/05 01:49:13;;;;;;;9.55;4.35;;;0.10;99.90;;;;;;5049111;28;20049;-71
2023/04/05 01:51:40;;;;;;;11.50;3.72;;;-0.30;99.90;;;;;;5049219;28;20102;-72
2023/04/05 01:54:07;;;;;;;10.02;3.30;;;0.20;99.90;;;;;;5047575;28;20055;-72
2023/04/05 01:56:32;;;;;;;9.00;3.85;;;-0.40;99.90;;;;;;5049078;28;20045;-72
2023/04/05 01:58:58;;;;;;;8.05;3.70;;;-0.40;99.90;;;;;;5049376;28;20048;-72
2023/04/05 02:01:24;;;;;;;7.63;3.83;;;-0.40;99.90;;;;;;5047112;28;20128;-72
2023/04/05 02:03:49;;;;;;;9.20;3.42;;;-0.40;99.90;;;;;;5049200;28;20051;-72
2023/04/05 02:06:15;;;;;;;9.57;3.72;;;-0.50;99.90;;;;;;5047624;28;20116;-72
2023/04/05 02:08:41;;;;;;;6.18;3.65;;;-0.50;99.90;;;;;;5047481;28;20049;-72
2023/04/05 02:11:06;;;;;;;9.75;4.03;;;-0.30;99.90;;;;;;5047451;28;20077;-71
2023/04/05 02:13:32;;;;;;;10.10;4.30;;;-0.50;99.90;;;;;;5047744;28;20052;-72
2023/04/05 02:15:57;;;;;;;10.23;3.90;;;-0.50;99.90;;;;;;5048628;28;20112;-72
2023/04/05 02:18:30;;;;;;;12.07;4.35;;;-0.50;99.90;;;;;;5047702;28;20537;-72
2023/04/05 02:21:03;;;;;;;15.00;4.85;;;-0.50;99.90;;;;;;5048928;28;20253;-72
2023/04/05 02:23:30;;;;;;;11.65;4.70;;;-0.60;99.90;;;;;;5047444;28;20088;-72
2023/04/05 02:25:57;;;;;;;10.68;4.35;;;-0.60;99.90;;;;;;5048183;28;20057;-72
2023/04/05 02:28:22;;;;;;;10.35;4.20;;;-0.60;99.90;;;;;;5047330;28;20045;-72
2023/04/05 02:30:48;;;;;;;11.18;4.43;;;-0.60;99.90;;;;;;5049090;28;20041;-71
2023/04/05 02:33:14;;;;;;;12.30;4.78;;;-0.60;99.90;;;;;;5049106;28;20072;-72
2023/04/05 02:35:40;;;;;;;9.10;3.95;;;-0.60;99.90;;;;;;5049251;28;20132;-72
2023/04/05 02:38:06;;;;;;;10.32;5.15;;;-0.60;99.90;;;;;;5047366;28;20049;-72
2023/04/05 02:40:31;;;;;;;11.73;4.15;;;-0.70;99.90;;;;;;5047603;28;20056;-72
2023/04/05 02:42:57;;;;;;;13.90;4.40;;;-0.70;99.90;;;;;;5045685;28;20045;-71
2023/04/05 02:45:23;;;;;;;10.65;4.72;;;-0.70;99.90;;;;;;5049790;28;20519;-72
2023/04/05 02:47:48;;;;;;;9.85;4.03;;;-0.70;99.90;;;;;;5051708;28;20124;-72
2023/04/05 02:50:19;;;;;;;11.32;4.40;;;-0.70;99.90;;;;;;5053200;28;20389;-72
2023/04/05 02:52:45;;;;;;;11.27;4.88;;;-0.70;99.90;;;;;;5051005;28;20083;-72
2023/04/05 02:55:11;;;;;;;7.97;4.43;;;-0.70;99.90;;;;;;5034787;28;20060;-72
2023/04/05 02:57:36;;;;;;;7.05;4.25;;;-0.80;99.90;;;;;;5051148;28;20037;-72
2023/04/05 03:00:04;;;;;;;8.00;4.28;;;-0.80;99.90;;;;;;5051065;28;20053;-73
2023/04/05 03:02:30;;;;;;;9.00;4.88;;;-0.80;99.90;;;;;;5052859;28;20059;-72
2023/04/05 03:04:55;;;;;;;9.23;4.55;;;-0.80;99.90;;;;;;5053106;28;20054;-72
2023/04/05 03:07:24;;;;;;;10.57;4.63;;;-0.90;99.90;;;;;;5052527;28;20398;-77
2023/04/05 03:09:50;;;;;;;12.75;4.50;;;-0.80;99.90;;;;;;5047439;28;20045;-73
2023/04/05 03:12:16;;;;;;;9.23;4.03;;;-0.90;99.90;;;;;;5050006;28;20115;-72
2023/04/05 03:14:41;;;;;;;10.38;4.60;;;-0.90;99.90;;;;;;5052255;28;20055;-72
2023/04/05 03:17:07;;;;;;;7.63;3.63;;;-0.90;99.90;;;;;;5051780;28;20071;-71
2023/04/05 03:19:34;;;;;;;7.72;4.00;;;-0.90;99.90;;;;;;5050711;28;20048;-72
2023/04/05 03:22:00;;;;;;;9.23;4.35;;;-1.00;99.90;;;;;;5052350;28;20056;-72
2023/04/05 03:24:26;;;;;;;9.80;4.88;;;-1.00;99.90;;;;;;5051706;28;20037;-72
2023/04/05 03:26:51;;;;;;;12.20;3.97;;;-0.90;99.90;;;;;;5050106;28;20107;-73
2023/04/05 03:29:17;;;;;;;12.43;4.80;;;-1.00;99.90;;;;;;5050723;28;20056;-75
2023/04/05 03:31:44;;;;;;;8.82;4.00;;;-1.00;99.90;;;;;;5050325;28;20489;-72
2023/04/05 03:34:09;;;;;;;12.23;4.53;;;-1.00;99.90;;;;;;5049873;28;20071;-71
2023/04/05 03:36:41;;;;;;;8.32;4.40;;;-1.00;99.90;;;;;;5050227;28;20317;-71
2023/04/05 03:39:10;;;;;;;10.15;4.50;;;-1.00;99.90;;;;;;5051875;28;20116;-72
2023/04/05 03:41:37;;;;;;;9.60;3.97;;;-0.70;99.90;;;;;;5049884;28;20517;-72
2023/04/05 03:44:03;;;;;;;7.65;3.63;;;-1.10;99.90;;;;;;5050060;28;20115;-72
2023/04/05 03:46:29;;;;;;;9.50;3.97;;;-1.10;99.90;;;;;;5051522;28;20086;-72
2023/04/05 03:48:56;;;;;;;8.20;3.70;;;-1.10;99.90;;;;;;5049920;28;20407;-73
2023/04/05 03:51:22;;;;;;;8.50;3.90;;;-1.20;99.90;;;;;;5051457;28;20505;-72
2023/04/05 03:53:49;;;;;;;8.05;3.70;;;-1.10;99.90;;;;;;5050208;28;20111;-72
2023/04/05 03:56:15;;;;;;;11.00;3.65;;;-1.20;99.90;;;;;;5050995;28;20119;-72
2023/04/05 03:58:41;;;;;;;10.10;4.55;;;-1.20;99.90;;;;;;5050659;28;20152;-72
2023/04/05 04:01:07;;;;;;;8.57;4.10;;;-1.20;99.90;;;;;;5049547;28;20068;-72
2023/04/05 04:03:32;;;;;;;8.50;4.70;;;-1.20;99.90;;;;;;5049441;28;20048;-73
2023/04/05 04:05:58;;;;;;;9.55;4.35;;;-1.20;99.90;;;;;;5033024;28;20049;-73
2023/04/05 04:08:25;;;;;;;10.10;4.15;;;-1.20;99.90;;;;;;5049106;28;20140;-72
2023/04/05 04:10:51;;;;;;;12.27;4.65;;;-1.20;99.90;;;;;;5050632;28;20076;-72
2023/04/05 04:13:18;;;;;;;12.82;6.05;;;-1.20;99.90;;;;;;5051046;28;20071;-73
2023/04/05 04:15:44;;;;;;;10.82;4.45;;;-1.20;99.90;;;;;;5050942;28;20088;-72
2023/04/05 04:18:10;;;;;;;12.15;4.97;;;-1.30;99.90;;;;;;5049423;28;20060;-72
2023/04/05 04:20:37;;;;;;;11.50;5.40;;;-1.30;99.90;;;;;;5051099;28;20064;-71
2023/04/05 04:23:03;;;;;;;10.65;5.07;;;-1.30;99.90;;;;;;5049563;28;20087;-72
2023/04/05 04:25:29;;;;;;;7.40;4.55;;;-1.30;99.90;;;;;;5050457;28;20084;-72
2023/04/05 04:27:55;;;;;;;9.07;4.22;;;-1.30;99.90;;;;;;5050086;28;20076;-72
2023/04/05 04:30:21;;;;;;;7.85;4.15;;;-1.40;99.90;;;;;;5049378;28;20041;-72
2023/04/05 04:32:51;;;;;;;8.70;3.88;;;-1.40;99.90;;;;;;5048476;28;20064;-73
2023/04/05 04:35:19;;;;;;;11.43;4.63;;;-1.40;99.90;;;;;;5050680;28;20103;-72
2023/04/05 04:37:56;;;;;;;10.70;4.43;;;-0.90;99.90;;;;;;5048843;28;20064;-72
2023/04/05 04:40:24;;;;;;;7.40;4.00;;;-1.40;99.90;;;;;;5049810;28;20041;-72
2023/04/05 04:42:50;;;;;;;9.18;4.53;;;-1.50;99.90;;;;;;5050314;28;20226;-72
2023/04/05 04:45:18;;;;;;;9.32;4.38;;;-1.60;99.90;;;;;;5050279;28;20048;-72
2023/04/05 04:47:45;;;;;;;8.68;4.88;;;-1.60;99.90;;;;;;5050147;28;20051;-71
2023/04/05 04:50:12;;;;;;;11.73;5.70;;;-1.50;99.90;;;;;;5048729;28;20076;-72
2023/04/05 04:52:39;;;;;;;9.55;5.20;;;-1.60;99.90;;;;;;5050320;28;20460;-72
2023/04/05 04:55:09;;;;;;;12.25;4.97;;;-1.50;99.90;;;;;;5049893;28;20080;-72
2023/04/05 04:57:35;;;;;;;12.02;5.55;;;-1.60;99.90;;;;;;5050291;28;20048;-72
2023/04/05 05:00:00;;;;;;;8.65;5.13;;;-1.60;99.90;;;;;;5048581;28;20565;-73
2023/04/05 05:02:27;;;;;;;10.90;4.93;;;-1.60;99.90;;;;;;5049642;28;20128;-72
2023/04/05 05:04:52;;;;;;;10.52;4.97;;;-1.60;99.90;;;;;;5049761;28;20073;-72
2023/04/05 05:07:19;;;;;;;11.73;4.53;;;-1.60;99.90;;;;;;5048292;28;20480;-72
2023/04/05 05:09:44;;;;;;;7.82;4.18;;;-1.60;99.90;;;;;;5048880;28;20041;-73
2023/04/05 05:12:10;;;;;;;7.10;4.00;;;-1.60;99.90;;;;;;5049787;28;20191;-72
2023/04/05 05:14:36;;;;;;;9.73;4.00;;;-1.60;99.90;;;;;;5048716;28;20053;-72
2023/04/05 05:17:04;;;;;;;11.07;5.15;;;-1.60;99.90;;;;;;5049689;28;20509;-72
2023/04/05 05:19:30;;;;;;;10.07;5.32;;;-1.60;99.90;;;;;;5049739;28;20095;-73
2023/04/05 05:21:56;;;;;;;12.27;5.88;;;-1.60;99.90;;;;;;5049559;28;20059;-72
2023/04/05 05:24:22;;;;;;;11.73;5.22;;;-1.60;99.90;;;;;;5048139;28;20051;-72
2023/04/05 05:26:48;;;;;;;10.55;5.57;;;-1.60;99.90;;;;;;5047921;28;20045;-72
2023/04/05 05:29:13;;;;;;;12.50;5.70;;;-1.60;99.90;;;;;;5047987;28;20053;-71
2023/04/05 05:31:39;;;;;;;11.68;5.82;;;-1.60;99.90;;;;;;5049957;28;20053;-73
2023/04/05 05:34:08;;;;;;;13.40;6.53;;;-1.50;99.90;;;;;;5049404;28;20071;-73
2023/04/05 05:36:34;;;;;;;11.70;5.78;;;-1.00;99.90;;;;;;5049356;28;20064;-72
2023/04/05 05:39:00;;;;;;;9.20;5.30;;;-1.50;99.90;;;;;;5047969;28;20135;-72
2023/04/05 05:41:26;;;;;;;11.98;6.10;;;-1.50;99.90;;;;;;5048226;28;20148;-72
2023/04/05 05:43:52;;;;;;;13.38;5.50;;;-1.50;99.90;;;;;;5048096;28;20378;-72
2023/04/05 05:46:19;;;;;;;12.20;6.18;;;-1.40;99.90;;;;;;5047808;28;20091;-76
2023/04/05 05:48:45;;;;;;;9.82;5.65;;;-1.40;99.90;;;;;;5049373;28;20092;-74
2023/04/05 05:51:10;;;;;;;10.45;5.97;;;-1.40;99.90;;;;;;5049261;28;20118;-73
2023/04/05 05:53:37;;;;;;;12.75;6.55;;;-1.30;99.90;;;;;;5049431;28;20152;-75
2023/04/05 05:56:03;;;;;;;12.77;5.80;;;-1.30;99.90;;;;;;5049051;28;20044;-77
2023/04/05 05:58:29;;;;;;;15.50;6.38;;;-1.30;99.90;;;;;;5049011;28;20532;-79
2023/04/05 06:00:55;;;;;;;11.95;6.72;;;-1.30;99.90;;;;;;5047925;28;20485;-74
2023/04/05 06:03:24;;;;;;;14.73;6.63;;;-1.20;99.90;;;;;;5046924;28;20048;-75
2023/04/05 06:05:54;;;;;;;13.68;6.35;;;-1.20;99.90;;;;;;5048086;28;20497;-75
2023/04/05 06:08:20;;;;;;;11.98;6.50;;;-1.10;99.90;;;;;;5049237;28;20484;-73
2023/04/05 06:10:47;;;;;;;14.10;7.80;;;-1.10;99.90;;;;;;5046756;28;20129;-77
2023/04/05 06:13:12;;;;;;;16.13;7.82;;;-1.00;99.90;;;;;;5047105;28;20057;-72
2023/04/05 06:15:38;;;;;;;21.45;8.80;;;-1.00;99.90;;;;;;5049187;28;20049;-77
2023/04/05 06:18:04;;;;;;;15.50;8.38;;;-0.90;99.90;;;;;;5048724;28;20057;-76
2023/04/05 06:20:29;;;;;;;20.05;10.32;;;-0.90;99.90;;;;;;5049726;28;20033;-76
2023/04/05 06:22:55;;;;;;;18.75;9.60;;;-0.80;99.90;;;;;;5037687;28;20045;-71
2023/04/05 06:25:21;;;;;;;18.75;10.18;;;-0.60;99.90;;;;;;5050489;28;20055;-69
2023/04/05 06:27:46;;;;;;;19.40;9.88;;;-0.60;99.90;;;;;;5034008;28;20061;-72
2023/04/05 06:30:12;;;;;;;24.35;11.50;;;-0.50;99.90;;;;;;5053111;28;20041;-72
2023/04/05 06:32:38;;;;;;;21.67;12.68;;;-0.30;99.90;;;;;;5052992;28;20672;-71
2023/04/05 06:35:04;;;;;;;17.92;11.63;;;-0.10;99.90;;;;;;5051430;28;20060;-71
2023/04/05 06:37:30;;;;;;;20.67;11.98;;;-0.20;99.90;;;;;;5051436;28;20123;-72
2023/04/05 06:39:56;;;;;;;22.90;11.57;;;0.00;99.90;;;;;;5051372;28;20588;-72
2023/04/05 06:42:21;;;;;;;24.25;13.60;;;0.10;99.90;;;;;;5052601;28;20052;-72
2023/04/05 06:44:47;;;;;;;18.83;12.32;;;0.20;99.90;;;;;;5051617;28;20535;-74
2023/04/05 06:47:14;;;;;;;18.42;11.85;;;0.30;99.90;;;;;;5050998;28;20060;-71
2023/04/05 06:49:39;;;;;;;18.65;11.55;;;0.40;99.90;;;;;;5052288;28;20111;-72
2023/04/05 06:52:05;;;;;;;18.77;11.93;;;0.50;99.90;;;;;;5049457;28;21561;-71
2023/04/05 06:54:37;;;;;;;21.92;12.43;;;0.50;99.90;;;;;;5051453;28;20049;-72
2023/04/05 06:57:03;;;;;;;21.60;11.50;;;0.70;99.90;;;;;;5052770;28;20051;-71
2023/04/05 06:59:29;;;;;;;17.17;11.23;;;0.70;99.90;;;;;;5052683;28;20056;-73
2023/04/05 07:01:55;;;;;;;19.98;12.20;;;0.90;99.90;;;;;;5052617;28;20044;-71
2023/04/05 07:04:21;;;;;;;17.92;11.32;;;1.00;99.90;;;;;;5052860;28;20041;-72
2023/04/05 07:06:46;;;;;;;20.15;12.00;;;1.00;99.90;;;;;;5053591;28;20063;-74
2023/04/05 07:09:12;;;;;;;22.52;10.95;;;1.10;99.90;;;;;;5054702;28;20037;-74
2023/04/05 07:11:38;;;;;;;19.42;11.63;;;1.20;99.90;;;;;;5054875;28;20382;-72
2023/04/05 07:14:05;;;;;;;22.77;11.63;;;1.30;99.90;;;;;;5053531;28;20059;-74
2023/04/05 07:16:30;;;;;;;19.30;11.48;;;1.40;99.90;;;;;;5052040;28;20091;-80
2023/04/05 07:18:56;;;;;;;19.42;11.30;;;1.50;99.90;;;;;;5051994;28;20092;-73
2023/04/05 07:21:22;;;;;;;19.92;11.75;;;1.60;99.90;;;;;;5052072;28;20049;-73
2023/04/05 07:23:48;;;;;;;20.65;10.75;;;1.70;99.90;;;;;;5051571;28;20040;-73
2023/04/05 07:26:14;;;;;;;18.52;11.32;;;1.80;99.90;;;;;;5033936;28;20061;-73
2023/04/05 07:28:40;;;;;;;18.95;11.48;;;1.90;99.90;;;;;;5051675;28;20561;-74
2023/04/05 07:31:06;;;;;;;17.88;11.23;;;2.00;99.90;;;;;;5050064;28;20308;-72
2023/04/05 07:33:33;;;;;;;19.63;11.57;;;2.10;99.90;;;;;;5048964;28;20063;-72
2023/04/05 07:35:58;;;;;;;18.10;11.40;;;2.20;99.90;;;;;;5051603;28;20097;-73
2023/04/05 07:38:25;;;;;;;17.45;10.73;;;2.30;99.90;;;;;;5052179;28;20132;-72
2023/04/05 07:40:51;;;;;;;19.75;11.73;;;2.60;99.90;;;;;;5052332;28;20045;-72
2023/04/05 07:43:20;;;;;;;18.52;11.27;;;2.60;99.90;;;;;;5051956;28;20047;-72
2023/04/05 07:45:45;;;;;;;18.88;10.95;;;2.60;99.90;;;;;;5050946;28;20045;-74
2023/04/05 07:48:11;;;;;;;19.02;10.35;;;2.70;99.90;;;;;;5033695;28;20059;-73
2023/04/05 07:50:39;;;;;;;15.68;10.68;;;2.80;99.90;;;;;;5029454;28;20045;-72
2023/04/05 07:53:06;;;;;;;18.15;10.85;;;2.90;99.90;;;;;;5050878;28;20605;-74
2023/04/05 07:55:32;;;;;;;15.57;10.15;;;3.10;99.90;;;;;;5051953;28;20049;-77
2023/04/05 07:57:58;;;;;;;14.05;9.25;;;3.20;99.90;;;;;;5052055;28;20044;-75
2023/04/05 08:00:24;;;;;;;14.48;9.20;;;3.60;99.90;;;;;;5050353;28;20045;-78
2023/04/05 08:02:52;;;;;;;15.05;8.85;;;3.50;99.90;;;;;;5051876;28;20045;-74
2023/04/05 08:05:17;;;;;;;16.27;8.93;;;3.60;99.90;;;;;;5050582;28;20075;-80
2023/04/05 08:07:43;;;;;;;16.02;7.63;;;3.80;99.90;;;;;;5050288;28;20084;-75
2023/04/05 08:10:09;;;;;;;11.90;8.40;;;4.00;99.90;;;;;;5051561;28;20079;-81
2023/04/05 08:12:35;;;;;;;12.95;8.18;;;4.20;99.90;;;;;;5051302;28;20087;-74
2023/04/05 08:15:00;;;;;;;12.57;7.60;;;4.30;99.90;;;;;;5050030;28;20049;-75
2023/04/05 08:17:27;;;;;;;15.93;8.63;;;4.50;99.90;;;;;;5049645;28;20671;-77
2023/04/05 08:19:53;;;;;;;12.63;7.45;;;4.60;99.90;;;;;;5051620;28;20048;-78
2023/04/05 08:22:19;;;;;;;12.27;6.82;;;4.90;99.90;;;;;;5051670;28;20045;-83
2023/04/05 08:24:45;;;;;;;15.38;7.53;;;5.10;99.90;;;;;;5050362;28;20098;-79
2023/04/05 08:27:11;;;;;;;11.20;6.68;;;5.30;99.90;;;;;;5051577;28;20452;-74
2023/04/05 08:29:37;;;;;;;10.80;7.53;;;5.60;99.90;;;;;;5050104;28;20049;-77
2023/04/05 08:32:05;;;;;;;13.20;6.68;;;5.90;99.90;;;;;;5050163;28;20052;-73
2023/04/05 08:34:31;;;;;;;10.55;6.10;;;6.10;99.90;;;;;;5052046;28;20045;-77
2023/04/05 08:36:59;;;;;;;14.75;7.20;;;6.40;99.90;;;;;;5050100;28;20048;-80
2023/04/05 08:39:25;;;;;;;11.73;6.72;;;6.70;99.90;;;;;;5050978;28;20087;-79
2023/04/05 08:42:02;;;;;;;11.02;6.40;;;6.90;99.90;;;;;;5049373;28;20076;-80
2023/04/05 08:44:30;;;;;;;13.07;6.70;;;7.20;99.90;;;;;;5049589;28;20521;-83
2023/04/05 08:46:58;;;;;;;10.75;6.18;;;7.50;99.90;;;;;;5049747;28;20045;-84
2023/04/05 08:49:23;;;;;;;11.48;5.72;;;7.80;99.90;;;;;;5051243;28;20348;-84
2023/04/05 08:51:49;;;;;;;9.82;5.80;;;7.90;99.90;;;;;;5049449;28;20123;-79
2023/04/05 08:54:16;;;;;;;10.10;5.53;;;8.40;99.90;;;;;;5051060;28;20037;-80
2023/04/05 08:56:43;;;;;;;10.40;5.90;;;8.30;99.90;;;;;;5050930;28;20067;-83
2023/04/05 08:59:10;;;;;;;12.40;5.85;;;8.50;99.90;;;;;;5049295;28;20041;-84
2023/04/05 09:01:39;;;;;;;11.48;5.53;;;8.70;99.90;;;;;;5050506;28;20575;-83
2023/04/05 09:04:08;;;;;;;11.60;5.40;;;9.00;99.90;;;;;;5049399;28;20081;-84
2023/04/05 09:06:35;;;;;;;10.85;5.95;;;9.20;99.90;;;;;;5048990;28;20140;-85
2023/04/05 09:09:05;;;;;;;9.73;5.78;;;9.40;99.90;;;;;;5050708;28;20045;-83
2023/04/05 09:11:32;;;;;;;11.20;5.55;;;9.50;99.90;;;;;;5049154;28;20045;-77
2023/04/05 09:13:58;;;;;;;10.23;5.18;;;9.70;99.90;;;;;;5048937;28;20044;-83
2023/04/05 09:16:26;;;;;;;12.02;5.35;;;9.90;99.90;;;;;;5050606;28;20045;-78
2023/04/05 09:18:51;;;;;;;9.40;5.35;;;10.20;99.90;;;;;;5050639;28;20053;-78
2023/04/05 09:21:18;;;;;;;9.80;5.10;;;10.30;99.90;;;;;;5049479;28;20073;-77
2023/04/05 09:23:52;;;;;;;10.13;5.07;;;10.30;99.90;;;;;;5049207;28;20060;-79
2023/04/05 09:26:20;;;;;;;9.93;4.60;;;10.40;99.90;;;;;;5049043;28;20045;-78
2023/04/05 09:28:46;;;;;;;7.50;4.60;;;10.40;99.90;;;;;;5032313;28;20090;-76
2023/04/05 09:31:33;;;;;;;7.78;4.35;;;10.70;99.90;;;;;;5048941;28;20129;-76
2023/04/05 09:34:03;;;;;;;9.77;4.53;;;11.00;99.90;;;;;;5050348;28;20083;-77
2023/04/05 09:36:28;;;;;;;8.68;4.03;;;11.10;99.90;;;;;;5044026;28;20044;-76
2023/04/05 09:39:07;;;;;;;8.77;4.35;;;11.00;99.90;;;;;;5048857;28;20404;-74
2023/04/05 09:41:34;;;;;;;8.73;4.60;;;11.00;99.90;;;;;;5050054;28;20075;-76
2023/04/05 09:44:01;;;;;;;12.35;5.57;;;11.10;99.90;;;;;;5048708;28;20055;-74
2023/04/05 09:46:38;;;;;;;10.30;4.43;;;11.10;99.90;;;;;;5048300;28;20048;-74
2023/04/05 09:49:06;;;;;;;7.32;4.25;;;11.30;99.90;;;;;;5049811;28;20048;-75
2023/04/05 09:51:34;;;;;;;8.55;4.10;;;11.30;99.90;;;;;;5031792;28;20088;-76
2023/04/05 09:54:05;;;;;;;9.35;4.68;;;11.30;99.90;;;;;;5050029;28;20120;-77
2023/04/05 09:56:36;;;;;;;7.20;4.03;;;11.50;99.90;;;;;;5049344;28;20094;-75
2023/04/05 09:59:06;;;;;;;8.05;4.53;;;11.60;99.90;;;;;;5049722;28;20033;-76
2023/04/05 10:01:32;;;;;;;7.72;4.45;;;11.80;99.90;;;;;;5049662;28;20041;-78
2023/04/05 10:03:59;;;;;;;12.23;4.28;;;11.80;99.90;;;;;;5048247;28;20090;-75
2023/04/05 10:06:38;;;;;;;8.48;3.97;;;11.70;99.90;;;;;;5049807;28;20474;-78
2023/04/05 10:09:05;;;;;;;9.07;4.47;;;11.70;99.90;;;;;;5049691;28;20052;-76
2023/04/05 10:11:36;;;;;;;9.07;4.40;;;11.90;99.90;;;;;;5048222;28;20428;-75
2023/04/05 10:14:04;;;;;;;9.73;4.35;;;12.00;99.90;;;;;;5049839;28;20049;-77
2023/04/05 10:17:19;;;;;;;8.70;4.28;;;12.10;99.60;;;;;;5047820;28;20053;-77
2023/04/05 10:20:12;;;;;;;6.47;4.10;;;12.20;97.90;;;;;;4985048;28;20063;-76
2023/04/05 10:22:49;;;;;;;11.98;4.53;;;12.20;96.60;;;;;;4988127;28;20495;-77
2023/04/05 10:25:26;;;;;;;8.55;4.20;;;12.00;98.60;;;;;;4988337;28;20085;-76
2023/04/05 10:28:23;;;;;;;8.32;4.40;;;12.00;97.50;;;;;;4988286;28;20141;-77
2023/04/05 10:30:54;;;;;;;6.50;4.43;;;12.20;97.60;;;;;;4933156;29;20118;-77
2023/04/05 10:33:24;;;;;;;8.35;4.93;;;12.40;98.80;;;;;;4949766;29;20063;-77
2023/04/05 10:36:04;;;;;;;7.15;4.47;;;12.50;98.50;;;;;;4933515;29;20059;-76
2023/04/05 10:38:53;;;;;;;8.50;4.40;;;12.60;96.90;;;;;;4949545;29;20043;-76
2023/04/05 10:41:19;;;;;;;10.07;4.97;;;12.60;98.40;;;;;;4932794;29;20055;-75
2023/04/05 10:43:45;;;;;;;8.88;4.95;;;12.60;98.00;;;;;;4948437;29;20051;-74
2023/04/05 10:46:12;;;;;;;9.13;4.95;;;12.30;97.60;;;;;;4914387;29;20468;-77
2023/04/05 10:48:38;;;;;;;8.98;5.10;;;12.20;97.70;;;;;;4930136;29;20060;-75
2023/04/05 10:51:04;;;;;;;13.80;5.82;;;12.20;97.10;;;;;;4914240;29;20048;-75
2023/04/05 10:53:33;;;;;;;8.85;5.07;;;12.30;96.70;;;;;;4931597;29;20413;-73
2023/04/05 10:56:00;;;;;;;9.98;4.50;;;12.50;96.40;;;;;;4957155;28;20534;-76
2023/04/05 10:58:27;;;;;;;9.18;4.75;;;12.60;96.80;;;;;;4988238;28;20495;-75
2023/04/05 11:00:54;;;;;;;7.93;5.05;;;12.70;96.00;;;;;;4971982;28;20058;-77
2023/04/05 11:03:47;;;;;;;8.63;4.38;;;12.90;96.60;;;;;;4973057;28;20117;-79
2023/04/05 11:06:35;;;;;;;7.22;4.65;;;13.00;95.40;;;;;;4946924;28;20057;-82
2023/04/05 11:09:11;;;;;;;7.55;4.60;;;13.20;94.60;;;;;;5032411;28;20046;-78
2023/04/05 11:11:45;;;;;;;8.32;4.72;;;13.30;92.40;;;;;;5032284;28;20045;-77
2023/04/05 11:14:25;;;;;;;9.55;4.63;;;13.00;95.80;;;;;;5033122;28;20041;-76
2023/04/05 11:16:55;;;;;;;7.50;4.43;;;12.80;93.20;;;;;;5032445;28;20054;-79
2023/04/05 11:19:47;;;;;;;8.77;4.82;;;12.90;95.10;;;;;;5033730;28;20501;-78
2023/04/05 11:22:23;;;;;;;8.02;4.82;;;12.90;92.40;;;;;;5031804;28;20115;-74
2023/04/05 11:25:00;;;;;;;7.95;4.70;;;12.90;94.50;;;;;;5032827;28;20064;-77
2023/04/05 11:27:27;;;;;;;10.60;4.70;;;13.10;94.20;;;;;;5032897;28;20057;-77
2023/04/05 11:29:54;;;;;;;8.35;4.35;;;12.90;94.00;;;;;;5046665;28;20063;-72
2023/04/05 11:32:20;;;;;;;7.80;4.80;;;13.00;94.50;;;;;;5050816;28;20045;-75
2023/04/05 11:35:03;;;;;;;7.95;4.35;;;12.70;94.20;;;;;;5034612;28;20106;-75
2023/04/05 11:38:01;;;;;;;7.80;4.68;;;12.70;94.00;;;;;;5050898;28;20052;-76
2023/04/05 11:40:35;;;;;;;8.18;4.60;;;12.90;92.10;;;;;;5012964;28;20155;-79
2023/04/05 11:43:08;;;;;;;11.40;4.97;;;13.00;93.70;;;;;;5028917;28;20044;-77
2023/04/05 11:45:37;;;;;;;10.57;4.88;;;13.00;92.90;;;;;;5029388;28;20247;-79
2023/04/05 11:48:07;;;;;;;8.18;4.60;;;13.20;92.90;;;;;;5010198;28;20943;-78
2023/04/05 11:50:35;;;;;;;9.18;4.50;;;13.20;93.40;;;;;;4995802;28;20062;-75
2023/04/05 11:53:11;;;;;;;9.38;5.03;;;13.40;93.30;;;;;;5009793;28;20165;-79
2023/04/05 11:55:38;;;;;;;7.38;4.63;;;13.50;92.00;;;;;;4993365;28;20054;-78
2023/04/05 11:58:17;;;;;;;9.13;4.60;;;13.60;93.00;;;;;;5009404;28;20064;-79
2023/04/05 12:00:44;;;;;;;6.95;4.20;;;13.70;90.50;;;;;;4977021;28;20049;-83
2023/04/05 12:03:14;;;;;;;8.43;5.20;;;13.70;92.10;;;;;;4993637;28;20037;-81
2023/04/05 12:05:49;;;;;;;6.88;4.43;;;13.90;92.00;;;;;;4993224;28;20157;-87
2023/04/05 12:08:16;;;;;;;9.32;4.03;;;13.90;90.70;;;;;;5009353;28;20469;-86
2023/04/05 12:10:42;;;;;;;7.55;4.20;;;13.80;91.30;;;;;;5011037;28;20058;-86
2023/04/05 12:13:07;;;;;;;8.60;4.72;;;13.90;91.70;;;;;;5011765;28;20429;-78
2023/04/05 12:15:39;;;;;;;7.13;4.45;;;14.20;92.20;;;;;;5008990;28;20045;-83
2023/04/05 12:18:12;;;;;;;6.57;4.35;;;14.30;91.50;;;;;;5010367;28;20048;-78
2023/04/05 12:20:38;;;;;;;8.45;4.32;;;14.40;91.20;;;;;;5013368;28;20081;-77
2023/04/05 12:23:04;;;;;;;10.00;4.60;;;14.40;92.10;;;;;;5029780;28;20049;-82
2023/04/05 12:25:31;;;;;;;8.88;4.20;;;14.50;91.10;;;;;;5029925;28;20123;-83
2023/04/05 12:28:03;;;;;;;6.07;3.78;;;14.50;90.70;;;;;;5029649;28;20060;-81
2023/04/05 12:30:35;;;;;;;8.18;4.35;;;14.60;91.10;;;;;;5046203;28;20051;-81
2023/04/05 12:33:07;;;;;;;8.45;4.45;;;14.50;90.50;;;;;;5050677;28;20494;-80
2023/04/05 12:35:34;;;;;;;8.05;4.72;;;14.50;89.20;;;;;;5032906;28;20102;-77
2023/04/05 12:38:04;;;;;;;10.00;4.32;;;14.60;91.00;;;;;;5050653;28;20049;-82
2023/04/05 12:40:32;;;;;;;6.70;4.00;;;14.90;90.90;;;;;;5048467;28;20124;-75
2023/04/05 12:43:06;;;;;;;6.82;3.97;;;15.00;90.00;;;;;;5040468;28;20076;-77
2023/04/05 12:45:38;;;;;;;7.78;4.55;;;15.10;90.30;;;;;;5030513;28;20041;-77
2023/04/05 12:48:09;;;;;;;6.68;4.00;;;15.00;90.10;;;;;;5046269;28;20452;-74
2023/04/05 12:50:35;;;;;;;7.53;4.25;;;15.20;89.70;;;;;;5050601;28;20092;-75